sensor_id;sensor_type;location;lat;lon;timestamp;P1;durP1;ratioP1;P2;durP2;ratioP2
76379;SDS011;65201;21.060;105.826;2023-05-16T00:00:31;37.73;;;23.20;;
76379;SDS011;65201;21.060;105.826;2023-05-16T00:03:00;36.88;;;23.15;;
76379;SDS011;65201;21.060;105.826;2023-05-16T00:05:27;34.75;;;23.42;;
76379;SDS011;65201;21.060;105.826;2023-05-16T00:07:53;35.80;;;23.25;;
76379;SDS011;65201;21.060;105.826;2023-05-16T00:10:20;33.05;;;21.23;;
76379;SDS011;65201;21.060;105.826;2023-05-16T00:12:46;33.47;;;21.93;;
76379;SDS011;65201;21.060;105.826;2023-05-16T00:15:16;41.22;;;21.63;;
76379;SDS011;65201;21.060;105.826;2023-05-16T00:17:42;37.22;;;22.20;;
76379;SDS011;65201;21.060;105.826;2023-05-16T00:20:12;33.90;;;22.52;;
76379;SDS011;65201;21.060;105.826;2023-05-16T00:22:39;36.72;;;23.00;;
76379;SDS011;65201;21.060;105.826;2023-05-16T00:25:05;32.73;;;22.90;;
76379;SDS011;65201;21.060;105.826;2023-05-16T00:27:33;39.72;;;23.05;;
76379;SDS011;65201;21.060;105.826;2023-05-16T00:29:59;38.55;;;23.55;;
76379;SDS011;65201;21.060;105.826;2023-05-16T00:32:26;34.15;;;23.65;;
76379;SDS011;65201;21.060;105.826;2023-05-16T00:34:52;36.65;;;22.92;;
76379;SDS011;65201;21.060;105.826;2023-05-16T00:37:18;34.73;;;23.37;;
76379;SDS011;65201;21.060;105.826;2023-05-16T00:39:44;42.13;;;24.45;;
76379;SDS011;65201;21.060;105.826;2023-05-16T00:42:10;37.70;;;24.15;;
76379;SDS011;65201;21.060;105.826;2023-05-16T00:44:36;38.60;;;23.88;;
76379;SDS011;65201;21.060;105.826;2023-05-16T00:47:03;38.70;;;24.17;;
76379;SDS011;65201;21.060;105.826;2023-05-16T00:49:29;35.30;;;23.47;;
76379;SDS011;65201;21.060;105.826;2023-05-16T00:51:55;38.58;;;23.45;;
76379;SDS011;65201;21.060;105.826;2023-05-16T00:54:22;34.92;;;23.25;;
76379;SDS011;65201;21.060;105.826;2023-05-16T00:56:50;36.75;;;24.08;;
76379;SDS011;65201;21.060;105.826;2023-05-16T00:59:17;34.30;;;24.20;;
76379;SDS011;65201;21.060;105.826;2023-05-16T01:01:45;38.87;;;23.60;;
76379;SDS011;65201;21.060;105.826;2023-05-16T01:04:14;39.80;;;22.30;;
76379;SDS011;65201;21.060;105.826;2023-05-16T01:06:40;38.97;;;23.70;;
76379;SDS011;65201;21.060;105.826;2023-05-16T01:09:06;34.53;;;23.80;;
76379;SDS011;65201;21.060;105.826;2023-05-16T01:14:05;32.40;;;22.17;;
76379;SDS011;65201;21.060;105.826;2023-05-16T01:16:35;33.55;;;21.67;;
76379;SDS011;65201;21.060;105.826;2023-05-16T01:21:41;32.47;;;21.73;;
76379;SDS011;65201;21.060;105.826;2023-05-16T01:24:13;33.72;;;22.30;;
76379;SDS011;65201;21.060;105.826;2023-05-16T01:26:45;29.20;;;20.73;;
76379;SDS011;65201;21.060;105.826;2023-05-16T01:29:13;34.10;;;21.70;;
76379;SDS011;65201;21.060;105.826;2023-05-16T01:31:40;32.05;;;21.20;;
76379;SDS011;65201;21.060;105.826;2023-05-16T01:34:06;31.98;;;20.88;;
76379;SDS011;65201;21.060;105.826;2023-05-16T01:44:16;29.98;;;20.85;;
76379;SDS011;65201;21.060;105.826;2023-05-16T01:46:44;32.60;;;20.85;;
76379;SDS011;65201;21.060;105.826;2023-05-16T01:51:41;29.67;;;20.43;;
76379;SDS011;65201;21.060;105.826;2023-05-16T01:54:11;29.75;;;20.95;;
76379;SDS011;65201;21.060;105.826;2023-05-16T01:56:38;29.35;;;21.17;;
76379;SDS011;65201;21.060;105.826;2023-05-16T01:59:04;29.80;;;20.00;;
76379;SDS011;65201;21.060;105.826;2023-05-16T02:01:31;30.70;;;21.13;;
76379;SDS011;65201;21.060;105.826;2023-05-16T02:03:57;33.60;;;21.73;;
76379;SDS011;65201;21.060;105.826;2023-05-16T02:06:23;32.22;;;21.30;;
76379;SDS011;65201;21.060;105.826;2023-05-16T02:08:50;30.85;;;22.23;;
76379;SDS011;65201;21.060;105.826;2023-05-16T02:11:17;30.45;;;21.40;;
76379;SDS011;65201;21.060;105.826;2023-05-16T02:13:46;29.25;;;20.75;;
76379;SDS011;65201;21.060;105.826;2023-05-16T02:16:12;32.97;;;22.27;;
76379;SDS011;65201;21.060;105.826;2023-05-16T02:18:38;35.35;;;22.45;;
76379;SDS011;65201;21.060;105.826;2023-05-16T02:21:04;30.75;;;21.33;;
76379;SDS011;65201;21.060;105.826;2023-05-16T02:23:31;29.65;;;20.95;;
76379;SDS011;65201;21.060;105.826;2023-05-16T02:25:57;30.27;;;21.73;;
76379;SDS011;65201;21.060;105.826;2023-05-16T02:28:23;30.13;;;21.53;;
76379;SDS011;65201;21.060;105.826;2023-05-16T02:30:56;32.65;;;22.38;;
76379;SDS011;65201;21.060;105.826;2023-05-16T02:33:22;28.02;;;21.73;;
76379;SDS011;65201;21.060;105.826;2023-05-16T02:35:48;31.70;;;22.65;;
76379;SDS011;65201;21.060;105.826;2023-05-16T02:38:15;30.50;;;22.08;;
76379;SDS011;65201;21.060;105.826;2023-05-16T02:40:42;31.03;;;21.43;;
76379;SDS011;65201;21.060;105.826;2023-05-16T02:43:08;29.85;;;22.00;;
76379;SDS011;65201;21.060;105.826;2023-05-16T02:45:34;35.10;;;22.73;;
76379;SDS011;65201;21.060;105.826;2023-05-16T02:48:00;29.95;;;21.80;;
76379;SDS011;65201;21.060;105.826;2023-05-16T02:50:26;30.90;;;22.05;;
76379;SDS011;65201;21.060;105.826;2023-05-16T02:52:52;29.02;;;21.27;;
76379;SDS011;65201;21.060;105.826;2023-05-16T02:55:18;30.88;;;22.00;;
76379;SDS011;65201;21.060;105.826;2023-05-16T02:57:44;30.77;;;22.33;;
76379;SDS011;65201;21.060;105.826;2023-05-16T03:00:10;30.93;;;21.47;;
76379;SDS011;65201;21.060;105.826;2023-05-16T03:02:37;30.20;;;21.55;;
76379;SDS011;65201;21.060;105.826;2023-05-16T03:05:03;31.25;;;21.50;;
76379;SDS011;65201;21.060;105.826;2023-05-16T03:07:30;31.25;;;21.83;;
76379;SDS011;65201;21.060;105.826;2023-05-16T03:09:56;31.98;;;21.15;;
76379;SDS011;65201;21.060;105.826;2023-05-16T03:12:22;28.33;;;20.93;;
76379;SDS011;65201;21.060;105.826;2023-05-16T03:14:48;30.02;;;21.77;;
76379;SDS011;65201;21.060;105.826;2023-05-16T03:17:16;30.75;;;21.02;;
76379;SDS011;65201;21.060;105.826;2023-05-16T03:19:42;29.50;;;21.60;;
76379;SDS011;65201;21.060;105.826;2023-05-16T03:22:07;29.87;;;21.43;;
76379;SDS011;65201;21.060;105.826;2023-05-16T03:24:34;27.83;;;21.33;;
76379;SDS011;65201;21.060;105.826;2023-05-16T03:27:00;31.25;;;21.27;;
76379;SDS011;65201;21.060;105.826;2023-05-16T03:29:28;29.80;;;21.08;;
76379;SDS011;65201;21.060;105.826;2023-05-16T03:31:54;28.50;;;19.90;;
76379;SDS011;65201;21.060;105.826;2023-05-16T03:34:20;27.98;;;21.05;;
76379;SDS011;65201;21.060;105.826;2023-05-16T03:36:47;27.50;;;20.67;;
76379;SDS011;65201;21.060;105.826;2023-05-16T03:39:13;28.20;;;20.77;;
76379;SDS011;65201;21.060;105.826;2023-05-16T03:41:39;26.63;;;20.15;;
76379;SDS011;65201;21.060;105.826;2023-05-16T03:44:05;29.57;;;20.93;;
76379;SDS011;65201;21.060;105.826;2023-05-16T03:46:31;28.88;;;21.17;;
76379;SDS011;65201;21.060;105.826;2023-05-16T03:48:57;27.05;;;20.40;;
76379;SDS011;65201;21.060;105.826;2023-05-16T03:51:23;27.25;;;20.30;;
76379;SDS011;65201;21.060;105.826;2023-05-16T03:53:49;27.60;;;20.27;;
76379;SDS011;65201;21.060;105.826;2023-05-16T03:56:15;27.27;;;20.42;;
76379;SDS011;65201;21.060;105.826;2023-05-16T03:58:41;27.55;;;20.90;;
76379;SDS011;65201;21.060;105.826;2023-05-16T04:01:07;27.98;;;20.50;;
76379;SDS011;65201;21.060;105.826;2023-05-16T04:03:33;27.80;;;20.33;;
76379;SDS011;65201;21.060;105.826;2023-05-16T04:06:00;26.27;;;19.55;;
76379;SDS011;65201;21.060;105.826;2023-05-16T04:08:26;28.65;;;21.25;;
76379;SDS011;65201;21.060;105.826;2023-05-16T04:10:52;28.17;;;19.77;;
76379;SDS011;65201;21.060;105.826;2023-05-16T04:13:18;24.73;;;19.75;;
76379;SDS011;65201;21.060;105.826;2023-05-16T04:15:44;25.87;;;19.93;;
76379;SDS011;65201;21.060;105.826;2023-05-16T04:18:11;26.73;;;19.60;;
76379;SDS011;65201;21.060;105.826;2023-05-16T04:20:37;25.83;;;19.52;;
76379;SDS011;65201;21.060;105.826;2023-05-16T04:23:03;26.67;;;19.67;;
76379;SDS011;65201;21.060;105.826;2023-05-16T04:25:29;29.87;;;20.47;;
76379;SDS011;65201;21.060;105.826;2023-05-16T04:27:55;23.33;;;19.63;;
76379;SDS011;65201;21.060;105.826;2023-05-16T04:30:21;24.50;;;18.95;;
76379;SDS011;65201;21.060;105.826;2023-05-16T04:32:47;25.08;;;18.40;;
76379;SDS011;65201;21.060;105.826;2023-05-16T04:35:13;27.55;;;20.35;;
76379;SDS011;65201;21.060;105.826;2023-05-16T04:37:39;25.73;;;19.37;;
76379;SDS011;65201;21.060;105.826;2023-05-16T04:40:05;27.20;;;18.90;;
76379;SDS011;65201;21.060;105.826;2023-05-16T04:42:32;25.58;;;19.27;;
76379;SDS011;65201;21.060;105.826;2023-05-16T04:44:58;23.83;;;19.20;;
76379;SDS011;65201;21.060;105.826;2023-05-16T04:47:24;26.98;;;19.25;;
76379;SDS011;65201;21.060;105.826;2023-05-16T04:49:50;26.70;;;18.25;;
76379;SDS011;65201;21.060;105.826;2023-05-16T04:52:16;25.50;;;19.15;;
76379;SDS011;65201;21.060;105.826;2023-05-16T04:54:41;24.30;;;18.77;;
76379;SDS011;65201;21.060;105.826;2023-05-16T04:57:08;24.93;;;18.13;;
76379;SDS011;65201;21.060;105.826;2023-05-16T04:59:34;23.65;;;19.05;;
76379;SDS011;65201;21.060;105.826;2023-05-16T05:02:00;25.10;;;18.85;;
76379;SDS011;65201;21.060;105.826;2023-05-16T05:04:26;24.08;;;18.85;;
76379;SDS011;65201;21.060;105.826;2023-05-16T05:06:52;25.02;;;19.05;;
76379;SDS011;65201;21.060;105.826;2023-05-16T05:09:18;23.00;;;18.70;;
76379;SDS011;65201;21.060;105.826;2023-05-16T05:11:44;23.85;;;18.40;;
76379;SDS011;65201;21.060;105.826;2023-05-16T05:14:10;25.25;;;18.90;;
76379;SDS011;65201;21.060;105.826;2023-05-16T05:16:36;23.20;;;19.45;;
76379;SDS011;65201;21.060;105.826;2023-05-16T05:19:03;25.23;;;18.73;;
76379;SDS011;65201;21.060;105.826;2023-05-16T05:21:30;26.53;;;19.47;;
76379;SDS011;65201;21.060;105.826;2023-05-16T05:23:57;25.08;;;19.00;;
76379;SDS011;65201;21.060;105.826;2023-05-16T05:26:22;26.45;;;19.58;;
76379;SDS011;65201;21.060;105.826;2023-05-16T05:28:50;24.48;;;19.42;;
76379;SDS011;65201;21.060;105.826;2023-05-16T05:31:16;22.87;;;18.67;;
76379;SDS011;65201;21.060;105.826;2023-05-16T05:33:42;24.38;;;18.67;;
76379;SDS011;65201;21.060;105.826;2023-05-16T05:39:04;24.25;;;18.90;;
76379;SDS011;65201;21.060;105.826;2023-05-16T05:41:31;24.83;;;18.55;;
76379;SDS011;65201;21.060;105.826;2023-05-16T05:43:57;25.70;;;18.83;;
76379;SDS011;65201;21.060;105.826;2023-05-16T05:46:23;24.92;;;18.27;;
76379;SDS011;65201;21.060;105.826;2023-05-16T05:48:50;23.42;;;18.70;;
76379;SDS011;65201;21.060;105.826;2023-05-16T05:51:16;25.42;;;18.00;;
76379;SDS011;65201;21.060;105.826;2023-05-16T05:53:42;23.85;;;18.52;;
76379;SDS011;65201;21.060;105.826;2023-05-16T05:56:09;24.80;;;18.30;;
76379;SDS011;65201;21.060;105.826;2023-05-16T05:58:35;25.73;;;18.67;;
76379;SDS011;65201;21.060;105.826;2023-05-16T06:01:01;22.05;;;17.75;;
76379;SDS011;65201;21.060;105.826;2023-05-16T06:03:27;23.42;;;18.48;;
76379;SDS011;65201;21.060;105.826;2023-05-16T06:05:53;23.85;;;18.05;;
76379;SDS011;65201;21.060;105.826;2023-05-16T06:08:19;21.93;;;17.90;;
76379;SDS011;65201;21.060;105.826;2023-05-16T06:10:46;25.10;;;18.40;;
76379;SDS011;65201;21.060;105.826;2023-05-16T06:13:12;24.05;;;18.65;;
76379;SDS011;65201;21.060;105.826;2023-05-16T06:15:38;24.75;;;18.10;;
76379;SDS011;65201;21.060;105.826;2023-05-16T06:18:04;22.33;;;18.65;;
76379;SDS011;65201;21.060;105.826;2023-05-16T06:20:31;23.80;;;17.77;;
76379;SDS011;65201;21.060;105.826;2023-05-16T06:22:57;22.48;;;18.23;;
76379;SDS011;65201;21.060;105.826;2023-05-16T06:25:23;24.33;;;17.88;;
76379;SDS011;65201;21.060;105.826;2023-05-16T06:27:49;25.30;;;17.90;;
76379;SDS011;65201;21.060;105.826;2023-05-16T06:30:15;24.08;;;17.83;;
76379;SDS011;65201;21.060;105.826;2023-05-16T06:32:41;22.07;;;17.23;;
76379;SDS011;65201;21.060;105.826;2023-05-16T06:35:08;22.23;;;17.55;;
76379;SDS011;65201;21.060;105.826;2023-05-16T06:37:34;21.55;;;17.75;;
76379;SDS011;65201;21.060;105.826;2023-05-16T06:40:01;26.00;;;17.58;;
76379;SDS011;65201;21.060;105.826;2023-05-16T06:42:27;22.73;;;18.00;;
76379;SDS011;65201;21.060;105.826;2023-05-16T06:44:53;24.03;;;18.87;;
76379;SDS011;65201;21.060;105.826;2023-05-16T06:47:19;21.25;;;17.15;;
76379;SDS011;65201;21.060;105.826;2023-05-16T06:49:46;23.05;;;17.50;;
76379;SDS011;65201;21.060;105.826;2023-05-16T06:52:12;20.90;;;17.00;;
76379;SDS011;65201;21.060;105.826;2023-05-16T06:54:38;20.90;;;16.88;;
76379;SDS011;65201;21.060;105.826;2023-05-16T06:57:04;19.97;;;16.17;;
76379;SDS011;65201;21.060;105.826;2023-05-16T06:59:33;20.48;;;17.00;;
76379;SDS011;65201;21.060;105.826;2023-05-16T07:01:59;20.65;;;17.00;;
76379;SDS011;65201;21.060;105.826;2023-05-16T07:04:26;21.80;;;17.65;;
76379;SDS011;65201;21.060;105.826;2023-05-16T07:06:52;22.85;;;17.40;;
76379;SDS011;65201;21.060;105.826;2023-05-16T07:09:19;20.30;;;17.00;;
76379;SDS011;65201;21.060;105.826;2023-05-16T07:11:45;20.85;;;16.20;;
76379;SDS011;65201;21.060;105.826;2023-05-16T07:14:11;18.73;;;16.58;;
76379;SDS011;65201;21.060;105.826;2023-05-16T07:16:38;19.58;;;16.27;;
76379;SDS011;65201;21.060;105.826;2023-05-16T07:19:04;20.02;;;16.48;;
76379;SDS011;65201;21.060;105.826;2023-05-16T07:21:30;19.97;;;16.00;;
76379;SDS011;65201;21.060;105.826;2023-05-16T07:23:56;20.02;;;16.90;;
76379;SDS011;65201;21.060;105.826;2023-05-16T07:26:22;22.00;;;16.55;;
76379;SDS011;65201;21.060;105.826;2023-05-16T07:28:49;19.60;;;16.20;;
76379;SDS011;65201;21.060;105.826;2023-05-16T07:31:15;18.80;;;16.67;;
76379;SDS011;65201;21.060;105.826;2023-05-16T07:33:41;20.87;;;16.10;;
76379;SDS011;65201;21.060;105.826;2023-05-16T07:36:07;18.95;;;16.25;;
76379;SDS011;65201;21.060;105.826;2023-05-16T07:38:34;18.55;;;15.88;;
76379;SDS011;65201;21.060;105.826;2023-05-16T07:41:00;19.83;;;16.20;;
76379;SDS011;65201;21.060;105.826;2023-05-16T07:43:26;18.40;;;15.57;;
76379;SDS011;65201;21.060;105.826;2023-05-16T07:45:52;16.67;;;14.60;;
76379;SDS011;65201;21.060;105.826;2023-05-16T07:48:18;18.25;;;15.35;;
76379;SDS011;65201;21.060;105.826;2023-05-16T07:50:45;17.80;;;15.55;;
76379;SDS011;65201;21.060;105.826;2023-05-16T07:53:11;17.17;;;14.55;;
76379;SDS011;65201;21.060;105.826;2023-05-16T07:55:37;18.77;;;15.48;;
76379;SDS011;65201;21.060;105.826;2023-05-16T07:58:03;18.30;;;15.40;;
76379;SDS011;65201;21.060;105.826;2023-05-16T08:00:29;18.05;;;15.15;;
76379;SDS011;65201;21.060;105.826;2023-05-16T08:02:56;17.90;;;14.85;;
76379;SDS011;65201;21.060;105.826;2023-05-16T08:05:22;18.92;;;15.25;;
76379;SDS011;65201;21.060;105.826;2023-05-16T08:07:48;19.92;;;15.90;;
76379;SDS011;65201;21.060;105.826;2023-05-16T08:10:15;17.37;;;14.93;;
76379;SDS011;65201;21.060;105.826;2023-05-16T08:12:41;18.00;;;15.27;;
76379;SDS011;65201;21.060;105.826;2023-05-16T08:15:07;17.40;;;15.32;;
76379;SDS011;65201;21.060;105.826;2023-05-16T08:17:33;17.60;;;15.23;;
76379;SDS011;65201;21.060;105.826;2023-05-16T08:20:00;18.20;;;15.23;;
76379;SDS011;65201;21.060;105.826;2023-05-16T08:22:26;17.77;;;14.37;;
76379;SDS011;65201;21.060;105.826;2023-05-16T08:24:52;18.73;;;15.05;;
76379;SDS011;65201;21.060;105.826;2023-05-16T08:27:22;17.60;;;14.63;;
76379;SDS011;65201;21.060;105.826;2023-05-16T08:29:49;18.38;;;15.43;;
76379;SDS011;65201;21.060;105.826;2023-05-16T08:32:15;17.33;;;14.98;;
76379;SDS011;65201;21.060;105.826;2023-05-16T08:34:41;17.10;;;15.07;;
76379;SDS011;65201;21.060;105.826;2023-05-16T08:37:07;18.77;;;14.82;;
76379;SDS011;65201;21.060;105.826;2023-05-16T08:39:34;18.05;;;16.13;;
76379;SDS011;65201;21.060;105.826;2023-05-16T08:42:00;18.83;;;15.05;;
76379;SDS011;65201;21.060;105.826;2023-05-16T08:44:27;18.90;;;16.75;;
76379;SDS011;65201;21.060;105.826;2023-05-16T08:46:53;20.23;;;14.80;;
76379;SDS011;65201;21.060;105.826;2023-05-16T08:49:20;17.50;;;15.52;;
76379;SDS011;65201;21.060;105.826;2023-05-16T08:51:46;18.40;;;15.32;;
76379;SDS011;65201;21.060;105.826;2023-05-16T08:54:13;19.05;;;15.80;;
76379;SDS011;65201;21.060;105.826;2023-05-16T08:56:40;18.88;;;15.68;;
76379;SDS011;65201;21.060;105.826;2023-05-16T08:59:06;16.63;;;14.87;;
76379;SDS011;65201;21.060;105.826;2023-05-16T09:01:33;19.52;;;15.43;;
76379;SDS011;65201;21.060;105.826;2023-05-16T09:03:59;17.83;;;15.88;;
76379;SDS011;65201;21.060;105.826;2023-05-16T09:06:26;18.40;;;15.93;;
76379;SDS011;65201;21.060;105.826;2023-05-16T09:08:52;19.02;;;16.30;;
76379;SDS011;65201;21.060;105.826;2023-05-16T09:11:19;19.27;;;15.13;;
76379;SDS011;65201;21.060;105.826;2023-05-16T09:13:46;20.70;;;15.63;;
76379;SDS011;65201;21.060;105.826;2023-05-16T09:18:39;19.48;;;15.65;;
76379;SDS011;65201;21.060;105.826;2023-05-16T09:21:06;18.33;;;16.30;;
76379;SDS011;65201;21.060;105.826;2023-05-16T09:23:33;17.73;;;15.30;;
76379;SDS011;65201;21.060;105.826;2023-05-16T09:25:59;18.77;;;15.73;;
76379;SDS011;65201;21.060;105.826;2023-05-16T09:28:25;22.45;;;15.90;;
76379;SDS011;65201;21.060;105.826;2023-05-16T09:30:52;17.45;;;15.65;;
76379;SDS011;65201;21.060;105.826;2023-05-16T09:33:23;22.70;;;16.05;;
76379;SDS011;65201;21.060;105.826;2023-05-16T09:38:21;18.80;;;15.55;;
76379;SDS011;65201;21.060;105.826;2023-05-16T09:40:47;17.13;;;14.77;;
76379;SDS011;65201;21.060;105.826;2023-05-16T09:43:15;17.75;;;14.75;;
76379;SDS011;65201;21.060;105.826;2023-05-16T09:45:44;19.98;;;15.55;;
76379;SDS011;65201;21.060;105.826;2023-05-16T09:48:10;17.97;;;15.47;;
76379;SDS011;65201;21.060;105.826;2023-05-16T09:50:40;18.63;;;15.75;;
76379;SDS011;65201;21.060;105.826;2023-05-16T09:53:07;19.35;;;15.65;;
76379;SDS011;65201;21.060;105.826;2023-05-16T09:55:33;19.48;;;16.00;;
76379;SDS011;65201;21.060;105.826;2023-05-16T09:57:59;18.83;;;15.98;;
76379;SDS011;65201;21.060;105.826;2023-05-16T10:00:29;19.90;;;16.40;;
76379;SDS011;65201;21.060;105.826;2023-05-16T10:02:57;21.25;;;16.95;;
76379;SDS011;65201;21.060;105.826;2023-05-16T10:05:26;19.27;;;16.02;;
76379;SDS011;65201;21.060;105.826;2023-05-16T10:07:55;24.08;;;17.13;;
76379;SDS011;65201;21.060;105.826;2023-05-16T10:10:22;22.80;;;16.90;;
76379;SDS011;65201;21.060;105.826;2023-05-16T10:12:51;22.53;;;17.03;;
76379;SDS011;65201;21.060;105.826;2023-05-16T10:15:17;22.98;;;17.90;;
76379;SDS011;65201;21.060;105.826;2023-05-16T10:17:44;21.65;;;17.52;;
76379;SDS011;65201;21.060;105.826;2023-05-16T10:20:15;21.20;;;17.25;;
76379;SDS011;65201;21.060;105.826;2023-05-16T10:22:42;20.67;;;17.30;;
76379;SDS011;65201;21.060;105.826;2023-05-16T10:25:24;22.73;;;17.83;;
76379;SDS011;65201;21.060;105.826;2023-05-16T10:27:52;19.60;;;17.50;;
76379;SDS011;65201;21.060;105.826;2023-05-16T10:30:18;23.35;;;18.50;;
76379;SDS011;65201;21.060;105.826;2023-05-16T10:32:45;20.50;;;17.52;;
76379;SDS011;65201;21.060;105.826;2023-05-16T10:35:12;24.95;;;17.50;;
76379;SDS011;65201;21.060;105.826;2023-05-16T10:37:38;23.80;;;18.07;;
76379;SDS011;65201;21.060;105.826;2023-05-16T10:40:05;24.23;;;17.85;;
76379;SDS011;65201;21.060;105.826;2023-05-16T10:42:33;25.40;;;18.63;;
76379;SDS011;65201;21.060;105.826;2023-05-16T10:45:14;22.50;;;18.08;;
76379;SDS011;65201;21.060;105.826;2023-05-16T10:47:49;23.42;;;18.95;;
76379;SDS011;65201;21.060;105.826;2023-05-16T10:50:29;25.90;;;18.47;;
76379;SDS011;65201;21.060;105.826;2023-05-16T10:52:55;24.25;;;18.67;;
76379;SDS011;65201;21.060;105.826;2023-05-16T10:55:21;25.23;;;19.60;;
76379;SDS011;65201;21.060;105.826;2023-05-16T10:57:47;27.67;;;19.55;;
76379;SDS011;65201;21.060;105.826;2023-05-16T11:00:20;26.02;;;19.05;;
76379;SDS011;65201;21.060;105.826;2023-05-16T11:02:47;25.23;;;20.00;;
76379;SDS011;65201;21.060;105.826;2023-05-16T11:05:16;31.73;;;20.52;;
76379;SDS011;65201;21.060;105.826;2023-05-16T11:07:43;26.55;;;19.98;;
76379;SDS011;65201;21.060;105.826;2023-05-16T11:10:14;29.20;;;20.15;;
76379;SDS011;65201;21.060;105.826;2023-05-16T11:12:50;31.40;;;21.17;;
76379;SDS011;65201;21.060;105.826;2023-05-16T11:15:17;26.17;;;20.00;;
76379;SDS011;65201;21.060;105.826;2023-05-16T11:17:44;25.27;;;20.40;;
76379;SDS011;65201;21.060;105.826;2023-05-16T11:20:31;30.20;;;20.48;;
76379;SDS011;65201;21.060;105.826;2023-05-16T11:25:56;27.35;;;20.13;;
76379;SDS011;65201;21.060;105.826;2023-05-16T11:28:26;25.80;;;20.40;;
76379;SDS011;65201;21.060;105.826;2023-05-16T11:30:53;26.80;;;20.25;;
76379;SDS011;65201;21.060;105.826;2023-05-16T11:33:21;32.63;;;20.90;;
76379;SDS011;65201;21.060;105.826;2023-05-16T11:36:00;29.67;;;20.00;;
76379;SDS011;65201;21.060;105.826;2023-05-16T11:38:29;29.35;;;20.85;;
76379;SDS011;65201;21.060;105.826;2023-05-16T11:41:00;29.53;;;20.17;;
76379;SDS011;65201;21.060;105.826;2023-05-16T11:43:26;25.80;;;20.30;;
76379;SDS011;65201;21.060;105.826;2023-05-16T11:45:55;29.05;;;20.35;;
76379;SDS011;65201;21.060;105.826;2023-05-16T11:48:24;31.08;;;20.50;;
76379;SDS011;65201;21.060;105.826;2023-05-16T11:50:51;27.85;;;21.40;;
76379;SDS011;65201;21.060;105.826;2023-05-16T11:53:18;30.57;;;20.90;;
76379;SDS011;65201;21.060;105.826;2023-05-16T11:55:44;31.95;;;21.13;;
76379;SDS011;65201;21.060;105.826;2023-05-16T11:58:16;30.90;;;22.38;;
76379;SDS011;65201;21.060;105.826;2023-05-16T12:00:49;27.70;;;21.58;;
76379;SDS011;65201;21.060;105.826;2023-05-16T12:03:16;27.00;;;21.52;;
76379;SDS011;65201;21.060;105.826;2023-05-16T12:05:49;31.30;;;21.77;;
76379;SDS011;65201;21.060;105.826;2023-05-16T12:08:16;27.20;;;20.80;;
76379;SDS011;65201;21.060;105.826;2023-05-16T12:10:42;28.38;;;22.27;;
76379;SDS011;65201;21.060;105.826;2023-05-16T12:13:08;29.42;;;21.95;;
76379;SDS011;65201;21.060;105.826;2023-05-16T12:15:35;29.20;;;21.70;;
76379;SDS011;65201;21.060;105.826;2023-05-16T12:18:01;26.63;;;20.53;;
76379;SDS011;65201;21.060;105.826;2023-05-16T12:20:27;25.88;;;21.55;;
76379;SDS011;65201;21.060;105.826;2023-05-16T12:22:56;31.00;;;21.73;;
76379;SDS011;65201;21.060;105.826;2023-05-16T12:25:26;34.20;;;20.52;;
76379;SDS011;65201;21.060;105.826;2023-05-16T12:27:52;34.42;;;22.33;;
76379;SDS011;65201;21.060;105.826;2023-05-16T12:30:20;28.83;;;20.23;;
76379;SDS011;65201;21.060;105.826;2023-05-16T12:32:56;33.65;;;19.65;;
76379;SDS011;65201;21.060;105.826;2023-05-16T12:35:23;29.65;;;19.70;;
76379;SDS011;65201;21.060;105.826;2023-05-16T12:37:49;28.60;;;19.65;;
76379;SDS011;65201;21.060;105.826;2023-05-16T12:40:20;22.98;;;17.77;;
76379;SDS011;65201;21.060;105.826;2023-05-16T12:42:50;27.90;;;18.77;;
76379;SDS011;65201;21.060;105.826;2023-05-16T12:45:18;33.28;;;20.88;;
76379;SDS011;65201;21.060;105.826;2023-05-16T12:47:45;71.13;;;29.40;;
76379;SDS011;65201;21.060;105.826;2023-05-16T12:50:12;248.18;;;69.30;;
76379;SDS011;65201;21.060;105.826;2023-05-16T12:52:52;334.52;;;98.03;;
76379;SDS011;65201;21.060;105.826;2023-05-16T12:55:18;189.70;;;59.70;;
76379;SDS011;65201;21.060;105.826;2023-05-16T12:57:45;129.38;;;45.97;;
76379;SDS011;65201;21.060;105.826;2023-05-16T13:00:16;125.43;;;45.42;;
76379;SDS011;65201;21.060;105.826;2023-05-16T13:02:45;120.32;;;42.30;;
76379;SDS011;65201;21.060;105.826;2023-05-16T13:05:12;110.25;;;41.47;;
76379;SDS011;65201;21.060;105.826;2023-05-16T13:07:38;108.00;;;41.70;;
76379;SDS011;65201;21.060;105.826;2023-05-16T13:10:08;117.00;;;42.45;;
76379;SDS011;65201;21.060;105.826;2023-05-16T13:12:39;112.28;;;42.75;;
76379;SDS011;65201;21.060;105.826;2023-05-16T13:15:06;98.63;;;39.03;;
76379;SDS011;65201;21.060;105.826;2023-05-16T13:17:33;91.18;;;37.53;;
76379;SDS011;65201;21.060;105.826;2023-05-16T13:19:59;95.27;;;38.33;;
76379;SDS011;65201;21.060;105.826;2023-05-16T13:22:26;89.28;;;37.22;;
76379;SDS011;65201;21.060;105.826;2023-05-16T13:24:52;92.80;;;38.00;;
76379;SDS011;65201;21.060;105.826;2023-05-16T13:27:18;86.95;;;35.28;;
76379;SDS011;65201;21.060;105.826;2023-05-16T13:29:44;78.22;;;34.10;;
76379;SDS011;65201;21.060;105.826;2023-05-16T13:32:11;78.80;;;32.67;;
76379;SDS011;65201;21.060;105.826;2023-05-16T13:34:37;78.15;;;32.03;;
76379;SDS011;65201;21.060;105.826;2023-05-16T13:37:03;68.10;;;30.75;;
76379;SDS011;65201;21.060;105.826;2023-05-16T13:39:29;66.38;;;30.50;;
76379;SDS011;65201;21.060;105.826;2023-05-16T13:41:55;71.35;;;30.05;;
76379;SDS011;65201;21.060;105.826;2023-05-16T13:44:21;62.97;;;29.00;;
76379;SDS011;65201;21.060;105.826;2023-05-16T13:46:48;72.60;;;28.48;;
76379;SDS011;65201;21.060;105.826;2023-05-16T13:49:14;61.78;;;28.67;;
76379;SDS011;65201;21.060;105.826;2023-05-16T13:51:40;59.53;;;26.50;;
76379;SDS011;65201;21.060;105.826;2023-05-16T13:54:07;62.10;;;25.80;;
76379;SDS011;65201;21.060;105.826;2023-05-16T13:56:33;59.43;;;25.37;;
76379;SDS011;65201;21.060;105.826;2023-05-16T13:59:00;57.85;;;26.00;;
76379;SDS011;65201;21.060;105.826;2023-05-16T14:01:26;53.17;;;24.73;;
76379;SDS011;65201;21.060;105.826;2023-05-16T14:03:52;47.72;;;23.58;;
76379;SDS011;65201;21.060;105.826;2023-05-16T14:06:18;54.83;;;23.00;;
76379;SDS011;65201;21.060;105.826;2023-05-16T14:08:44;54.50;;;23.43;;
76379;SDS011;65201;21.060;105.826;2023-05-16T14:11:11;53.40;;;23.65;;
76379;SDS011;65201;21.060;105.826;2023-05-16T14:13:37;50.58;;;23.67;;
76379;SDS011;65201;21.060;105.826;2023-05-16T14:16:05;46.70;;;22.45;;
76379;SDS011;65201;21.060;105.826;2023-05-16T14:18:31;42.00;;;22.52;;
76379;SDS011;65201;21.060;105.826;2023-05-16T14:20:58;44.37;;;22.17;;